Time;durP1;ratioP1;P1;durP2;ratioP2;P2;SDS_P1;SDS_P2;PMS_P1;PMS_P2;Temp;Humidity;BMP_temperature;BMP_pressure;BME280_temperature;BME280_humidity;BME280_pressure;Samples;Min_cycle;Max_cycle;Signal;HPM_P1;HPM_P2
2022/07/23 00:01:53;;;;;;;;;;;;;;;-144.99;75.92;52256.50;5041525;28;19929;-75
2022/07/23 00:04:19;;;;;;;;;;;;;;;-144.99;75.86;52291.16;5039212;28;20380;-74
2022/07/23 00:06:46;;;;;;;;;;;;;;;-144.99;76.02;52223.88;5041639;28;20039;-74
2022/07/23 00:09:13;;;;;;;;;;;;;;;-144.99;76.71;52276.88;5041506;28;20052;-73
2022/07/23 00:11:40;;;;;;;;;;;;;;;-144.99;76.82;52285.03;5039971;28;20343;-74
2022/07/23 00:14:06;;;;;;;;;;;;;;;-144.99;77.13;52260.56;5043469;28;20023;-72
2022/07/23 00:16:33;;;;;;;;;;;;;;;-144.99;76.89;52293.19;5042491;28;20343;-76
2022/07/23 00:19:01;;;;;;;;;;;;;;;-144.99;76.88;52248.34;5041935;28;19928;-73
2022/07/23 00:21:27;;;;;;;;;;;;;;;-144.99;77.05;52276.88;5040566;28;20799;-73
2022/07/23 00:23:54;;;;;;;;;;;;;;;-144.99;76.88;52264.66;5045835;28;20389;-74
2022/07/23 00:26:22;;;;;;;;;;;;;;;-144.99;76.47;52256.50;5042384;28;20293;-75
2022/07/23 00:28:48;;;;;;;;;;;;;;;-144.99;76.84;52268.72;5046707;28;20024;-73
2022/07/23 00:31:15;;;;;;;;;;;;;;;-144.99;76.93;52266.69;5043395;28;19960;-73
2022/07/23 00:33:41;;;;;;;;;;;;;;;-144.99;76.51;52268.72;5042172;28;19931;-75
2022/07/23 00:36:08;;;;;;;;;;;;;;;-144.99;76.40;52256.50;5036423;28;19968;-74
2022/07/23 00:38:35;;;;;;;;;;;;;;;-144.99;76.41;52268.72;5040146;28;19960;-75
2022/07/23 00:41:01;;;;;;;;;;;;;;;-144.99;76.23;52260.56;5045279;28;19937;-71
2022/07/23 00:43:29;;;;;;;;;;;;;;;-144.99;76.44;52301.34;5041787;28;19933;-73
2022/07/23 00:45:55;;;;;;;;;;;;;;;-144.99;76.36;52276.88;5034181;28;19925;-76
2022/07/23 00:48:22;;;;;;;;;;;;;;;-144.99;75.97;52278.91;5044601;28;19993;-73
2022/07/23 00:50:49;;;;;;;;;;;;;;;-144.99;76.22;52244.28;5040758;28;20050;-73
2022/07/23 00:53:16;;;;;;;;;;;;;;;-144.99;76.66;52258.53;5042694;28;19986;-77
2022/07/23 00:55:43;;;;;;;;;;;;;;;-144.99;76.56;52297.25;5041909;28;20371;-75
2022/07/23 00:58:10;;;;;;;;;;;;;;;-144.99;76.88;52297.25;5041109;28;19960;-73
2022/07/23 01:00:37;;;;;;;;;;;;;;;-144.99;76.36;52289.13;5040306;28;20024;-73
2022/07/23 01:03:04;;;;;;;;;;;;;;;-144.99;76.26;52260.56;5040627;28;20180;-74
2022/07/23 01:05:30;;;;;;;;;;;;;;;-144.99;76.72;52256.50;5038095;28;19982;-72
2022/07/23 01:07:57;;;;;;;;;;;;;;;-144.99;76.68;52283.00;5042480;28;20387;-72
2022/07/23 01:10:32;;;;;;;;;;;;;;;-144.99;76.09;52248.34;5036953;28;20346;-71
2022/07/23 01:12:59;;;;;;;;;;;;;;;-144.99;75.47;52333.94;5040602;28;19931;-73
2022/07/23 01:15:26;;;;;;;;;;;;;;;-144.99;74.26;52280.97;5036301;28;19935;-73
2022/07/23 01:17:54;;;;;;;;;;;;;;;-144.99;73.79;52289.13;5042374;28;20375;-72
2022/07/23 01:20:20;;;;;;;;;;;;;;;-144.99;74.73;52301.34;5036169;28;20538;-72
2022/07/23 01:22:48;;;;;;;;;;;;;;;-144.99;74.78;52297.25;5042556;28;19925;-72
2022/07/23 01:25:15;;;;;;;;;;;;;;;-144.99;74.98;52260.56;5038926;28;19928;-70
2022/07/23 01:27:42;;;;;;;;;;;;;;;-144.99;75.36;52232.03;5036772;28;19929;-74
2022/07/23 01:30:09;;;;;;;;;;;;;;;-144.99;75.42;52244.28;5040066;28;19929;-71
2022/07/23 01:32:36;;;;;;;;;;;;;;;-144.99;75.59;52260.56;5040282;28;19928;-71
2022/07/23 01:35:02;;;;;;;;;;;;;;;-144.99;76.27;52260.56;5038546;28;19982;-72
2022/07/23 01:37:29;;;;;;;;;;;;;;;-144.99;76.77;52246.31;5043024;28;20016;-75
2022/07/23 01:39:57;;;;;;;;;;;;;;;-144.99;77.79;52240.19;5040902;28;20461;-72
2022/07/23 01:42:23;;;;;;;;;;;;;;;-144.99;78.27;52280.97;5043105;28;19972;-72
2022/07/23 01:44:50;;;;;;;;;;;;;;;-144.99;78.48;52305.41;5040973;28;20016;-74
2022/07/23 01:47:17;;;;;;;;;;;;;;;-144.99;78.72;52230.00;5043814;28;19964;-72
2022/07/23 01:49:43;;;;;;;;;;;;;;;-144.99;78.69;52264.66;5042324;28;19929;-76
2022/07/23 01:52:10;;;;;;;;;;;;;;;-144.99;78.99;52268.72;5043354;28;19928;-74
2022/07/23 01:54:38;;;;;;;;;;;;;;;-144.99;79.24;52280.97;5037738;28;19925;-75
2022/07/23 01:57:06;;;;;;;;;;;;;;;-144.99;79.33;52252.44;5045168;28;20399;-75
2022/07/23 01:59:33;;;;;;;;;;;;;;;-144.99;79.19;52276.88;5042634;28;19938;-74
2022/07/23 02:01:59;;;;;;;;;;;;;;;-144.99;79.62;52278.91;5043838;28;19940;-76
2022/07/23 02:04:26;;;;;;;;;;;;;;;-144.99;80.43;52293.19;5039911;28;19956;-74
2022/07/23 02:06:53;;;;;;;;;;;;;;;-144.99;80.05;52313.56;5041246;28;19929;-72
2022/07/23 02:09:20;;;;;;;;;;;;;;;-144.99;79.55;52280.97;5045410;28;20011;-71
2022/07/23 02:11:46;;;;;;;;;;;;;;;-144.99;79.42;52272.81;5039804;28;20070;-74
2022/07/23 02:14:14;;;;;;;;;;;;;;;-144.99;79.33;52268.72;5046907;28;20024;-76
2022/07/23 02:16:41;;;;;;;;;;;;;;;-144.99;79.30;52276.88;5047991;28;20134;-72
2022/07/23 02:19:07;;;;;;;;;;;;;;;-144.99;79.50;52264.66;5044077;28;19939;-73
2022/07/23 02:21:34;;;;;;;;;;;;;;;-144.99;79.41;52219.81;5048191;28;19985;-75
2022/07/23 02:24:00;;;;;;;;;;;;;;;-144.99;79.95;52307.47;5043244;28;20046;-75
2022/07/23 02:26:27;;;;;;;;;;;;;;;-144.99;80.00;52258.53;5044988;28;19940;-74
2022/07/23 02:28:53;;;;;;;;;;;;;;;-144.99;79.78;52252.44;5041638;28;20389;-73
2022/07/23 02:31:21;;;;;;;;;;;;;;;-144.99;80.21;52285.03;5040822;28;20010;-74
2022/07/23 02:33:48;;;;;;;;;;;;;;;-144.99;79.81;52285.03;5046111;28;19953;-74
2022/07/23 02:36:14;;;;;;;;;;;;;;;-144.99;80.13;52289.13;5041927;28;19940;-72
2022/07/23 02:38:41;;;;;;;;;;;;;;;-144.99;80.28;52248.34;5041704;28;20015;-75
2022/07/23 02:41:07;;;;;;;;;;;;;;;-144.99;80.73;52236.13;5042296;28;19963;-73
2022/07/23 02:43:34;;;;;;;;;;;;;;;-144.99;79.99;52280.97;5040769;28;20047;-75
2022/07/23 02:46:00;;;;;;;;;;;;;;;-144.99;80.79;52276.88;5080468;22;19928;-73
2022/07/23 02:48:28;;;;;;;;;;;;;;;-144.99;80.39;52260.56;5065892;28;19925;-71
2022/07/23 02:50:56;;;;;;;;;;;;;;;-144.99;80.43;52270.78;5064844;28;19963;-72
2022/07/23 02:53:22;;;;;;;;;;;;;;;-144.99;80.25;52311.53;5067403;28;19928;-73
2022/07/23 02:55:49;;;;;;;;;;;;;;;-144.99;79.70;52293.19;5065289;28;20403;-72
2022/07/23 02:58:15;;;;;;;;;;;;;;;-144.99;79.55;52244.28;5067696;28;19959;-75
2022/07/23 03:00:42;;;;;;;;;;;;;;;-144.99;79.18;52276.88;5068646;28;19924;-73
2022/07/23 03:03:08;;;;;;;;;;;;;;;-144.99;78.92;52264.66;5061777;28;19986;-73
2022/07/23 03:05:36;;;;;;;;;;;;;;;-144.99;78.77;52305.41;5068916;28;19931;-73
2022/07/23 03:08:03;;;;;;;;;;;;;;;-144.99;78.19;52256.50;5069305;28;19924;-75
2022/07/23 03:10:29;;;;;;;;;;;;;;;-144.99;78.04;52258.53;5069963;28;20399;-73
2022/07/23 03:12:56;;;;;;;;;;;;;;;-144.99;77.77;52338.03;5069160;28;19936;-72
2022/07/23 03:15:23;;;;;;;;;;;;;;;-144.99;77.70;52280.97;5067653;28;19932;-72
2022/07/23 03:17:49;;;;;;;;;;;;;;;-144.99;78.46;52297.25;5069594;28;19933;-74
2022/07/23 03:20:16;;;;;;;;;;;;;;;-144.99;78.56;52260.56;5066957;28;19928;-71
2022/07/23 03:22:43;;;;;;;;;;;;;;;-144.99;78.82;52240.19;5068102;28;20398;-72
2022/07/23 03:25:10;;;;;;;;;;;;;;;-144.99;78.73;52244.28;5067358;28;19932;-72
2022/07/23 03:27:36;;;;;;;;;;;;;;;-144.99;78.88;52293.19;5068966;28;19924;-72
2022/07/23 03:30:03;;;;;;;;;;;;;;;-144.99;79.11;52260.56;5065384;28;20650;-74
2022/07/23 03:32:31;;;;;;;;;;;;;;;-144.99;79.65;52268.72;5067259;28;19977;-74
2022/07/23 03:34:57;;;;;;;;;;;;;;;-144.99;80.40;52236.13;5063458;28;19928;-73
2022/07/23 03:37:24;;;;;;;;;;;;;;;-144.99;79.95;52236.13;5066535;28;19978;-73
2022/07/23 03:39:52;;;;;;;;;;;;;;;-144.99;80.96;52240.19;5067885;28;19944;-74
2022/07/23 03:42:19;;;;;;;;;;;;;;;-144.99;81.17;52260.56;5068978;28;19924;-74
2022/07/23 03:44:45;;;;;;;;;;;;;;;-144.99;81.78;52289.13;5068715;28;20816;-74
2022/07/23 03:47:12;;;;;;;;;;;;;;;-144.99;81.84;52309.50;5069349;28;19936;-75
2022/07/23 03:49:38;;;;;;;;;;;;;;;-144.99;81.88;52244.28;5065417;28;20022;-73
2022/07/23 03:52:05;;;;;;;;;;;;;;;-144.99;82.71;52305.41;5065224;28;20004;-73
2022/07/23 03:54:32;;;;;;;;;;;;;;;-144.99;82.96;52301.34;5068731;28;19925;-72
2022/07/23 03:56:59;;;;;;;;;;;;;;;-144.99;83.28;52280.97;5067329;28;20383;-74
2022/07/23 03:59:26;;;;;;;;;;;;;;;-144.99;83.34;52287.06;5064889;28;19981;-73
2022/07/23 04:01:52;;;;;;;;;;;;;;;-144.99;82.82;52207.59;5067510;28;19978;-73
2022/07/23 04:04:19;;;;;;;;;;;;;;;-144.99;82.76;52256.50;5067786;28;19924;-72
2022/07/23 04:06:46;;;;;;;;;;;;;;;-144.99;83.29;52289.13;5065601;28;20349;-74
2022/07/23 04:09:12;;;;;;;;;;;;;;;-144.99;83.00;52283.00;5065146;28;19977;-73
2022/07/23 04:11:39;;;;;;;;;;;;;;;-144.99;82.84;52266.69;5071562;28;19963;-73
2022/07/23 04:14:07;;;;;;;;;;;;;;;-144.99;83.75;52278.91;5071221;28;19928;-73
2022/07/23 04:16:33;;;;;;;;;;;;;;;-144.99;84.01;52264.66;5068567;28;19928;-72
2022/07/23 04:19:00;;;;;;;;;;;;;;;-144.99;84.31;52299.31;5070497;28;20457;-73
2022/07/23 04:21:26;;;;;;;;;;;;;;;-144.99;83.71;52301.34;5066335;28;19978;-73
2022/07/23 04:23:53;;;;;;;;;;;;;;;-144.99;81.70;52260.56;5067008;28;19924;-73
2022/07/23 04:26:19;;;;;;;;;;;;;;;-144.99;80.67;52287.06;5066049;28;19924;-73
2022/07/23 04:28:46;;;;;;;;;;;;;;;-144.99;80.00;52295.22;5064707;28;19934;-72
2022/07/23 04:31:13;;;;;;;;;;;;;;;-144.99;79.17;52244.28;5061566;28;19960;-73
2022/07/23 04:33:40;;;;;;;;;;;;;;;-144.99;78.81;52260.56;5065055;28;19956;-73
2022/07/23 04:36:07;;;;;;;;;;;;;;;-144.99;78.18;52260.56;5063113;28;19929;-72
2022/07/23 04:38:33;;;;;;;;;;;;;;;-144.99;100.00;61100.13;5063198;28;20002;-74
2022/07/23 04:41:00;;;;;;;;;;;;;;;-144.99;77.52;52260.56;5064923;28;20398;-75
2022/07/23 04:43:26;;;;;;;;;;;;;;;-144.99;77.39;52256.50;5062745;28;20038;-74
2022/07/23 04:45:53;;;;;;;;;;;;;;;-144.99;77.42;52280.97;5063332;28;19932;-74
2022/07/23 04:48:21;;;;;;;;;;;;;;;-144.99;76.03;52248.34;5062935;28;19994;-74
2022/07/23 04:50:47;;;;;;;;;;;;;;;-144.99;75.57;52309.50;5064324;28;20462;-73
2022/07/23 04:53:14;;;;;;;;;;;;;;;-144.99;75.85;52268.72;5064580;28;20070;-72
2022/07/23 04:55:40;;;;;;;;;;;;;;;-144.99;75.29;52272.81;5063309;28;19924;-72
2022/07/23 04:58:07;;;;;;;;;;;;;;;-144.99;75.05;52254.47;5064402;28;20330;-72
2022/07/23 05:00:33;;;;;;;;;;;;;;;-144.99;74.46;52268.72;5062972;28;20561;-73
2022/07/23 05:03:00;;;;;;;;;;;;;;;-144.99;75.57;52291.16;5064449;28;19943;-72
2022/07/23 05:05:28;;;;;;;;;;;;;;;-144.99;75.80;52289.13;5066901;28;19931;-73
2022/07/23 05:07:54;;;;;;;;;;;;;;;-144.99;76.17;52293.19;5069023;28;19982;-73
2022/07/23 05:10:21;;;;;;;;;;;;;;;-144.99;75.36;52301.34;5068745;28;19928;-73
2022/07/23 05:12:47;;;;;;;;;;;;;;;-144.99;74.85;52250.38;5067920;28;19972;-73
2022/07/23 05:15:14;;;;;;;;;;;;;;;-144.99;100.00;61100.13;5068233;28;20382;-73
2022/07/23 05:17:40;;;;;;;;;;;;;;;-144.99;100.00;61100.13;5069418;28;20405;-73
2022/07/23 05:20:07;;;;;;;;;;;;;;;-144.99;75.32;52264.66;5062283;28;20036;-73
2022/07/23 05:22:35;;;;;;;;;;;;;;;-144.99;75.74;52264.66;5065600;28;19924;-73
2022/07/23 05:25:01;;;;;;;;;;;;;;;-144.99;77.09;52244.28;5067142;28;19960;-72
2022/07/23 05:27:28;;;;;;;;;;;;;;;-144.99;100.00;61100.13;5063734;28;19931;-72
2022/07/23 05:29:54;;;;;;;;;;;;;;;-144.99;100.00;61100.13;5066891;28;20335;-73
2022/07/23 05:32:21;;;;;;;;;;;;;;;-144.99;100.00;61100.13;5066879;28;20612;-73
2022/07/23 05:34:47;;;;;;;;;;;;;;;-144.99;100.00;61100.13;5069598;28;19924;-71
2022/07/23 05:37:14;;;;;;;;;;;;;;;-144.99;100.00;61100.13;5069585;28;19939;-72
2022/07/23 05:39:42;;;;;;;;;;;;;;;-144.99;79.72;52276.88;5071402;28;19932;-72
2022/07/23 05:42:08;;;;;;;;;;;;;;;-144.99;100.00;61100.13;5069203;28;19939;-72
2022/07/23 05:44:35;;;;;;;;;;;;;;;-144.99;100.00;61100.13;5070898;28;20388;-72
2022/07/23 05:47:01;;;;;;;;;;;;;;;-144.99;100.00;61100.13;5069168;28;20012;-71
2022/07/23 05:49:28;;;;;;;;;;;;;;;-144.99;100.00;61100.13;5070286;28;20353;-71
2022/07/23 05:51:54;;;;;;;;;;;;;;;-144.99;100.00;61100.13;5068055;28;19925;-72
2022/07/23 05:54:21;;;;;;;;;;;;;;;-144.99;100.00;61100.13;5063313;28;19996;-71
2022/07/23 05:56:50;;;;;;;;;;;;;;;-144.99;100.00;61100.13;5067508;28;19931;-73
2022/07/23 05:59:16;;;;;;;;;;;;;;;-144.99;81.82;52264.66;5071722;28;19932;-72
2022/07/23 06:01:43;;;;;;;;;;;;;;;-144.99;83.00;52280.97;5067879;28;20201;-73
2022/07/23 06:04:09;;;;;;;;;;;;;;;-144.99;82.91;52252.44;5072961;28;19989;-71
2022/07/23 06:06:36;;;;;;;;;;;;;;;-144.99;82.64;52260.56;5068727;28;19924;-72
2022/07/23 06:09:02;;;;;;;;;;;;;;;-144.99;100.00;61100.13;5067341;28;19956;-72
2022/07/23 06:11:29;;;;;;;;;;;;;;;-144.99;81.44;52244.28;5069307;28;19959;-74
2022/07/23 06:13:57;;;;;;;;;;;;;;;-144.99;80.98;52264.66;5073861;28;19924;-74
2022/07/23 06:16:23;;;;;;;;;;;;;;;-144.99;80.00;52287.06;5069172;28;20031;-72
2022/07/23 06:18:50;;;;;;;;;;;;;;;-144.99;79.15;52256.50;5069451;28;20622;-72
2022/07/23 06:21:16;;;;;;;;;;;;;;;-144.99;79.37;52276.88;5065191;28;19925;-72
2022/07/23 06:23:43;;;;;;;;;;;;;;;-144.99;79.26;52276.88;5070492;28;19983;-71
2022/07/23 06:26:09;;;;;;;;;;;;;;;-144.99;79.31;52256.50;5070364;28;19929;-72
2022/07/23 06:28:36;;;;;;;;;;;;;;;-144.99;81.93;52268.72;5070257;28;19960;-72
2022/07/23 06:31:04;;;;;;;;;;;;;;;-144.99;85.63;52268.72;5068458;28;20208;-73
2022/07/23 06:33:30;;;;;;;;;;;;;;;-144.99;85.61;52260.56;5067601;28;19928;-74
2022/07/23 06:35:56;;;;;;;;;;;;;;;-144.99;86.30;52227.97;5069186;28;19935;-75
2022/07/23 06:38:23;;;;;;;;;;;;;;;-144.99;85.08;52248.34;5067694;28;20379;-74
2022/07/23 06:40:49;;;;;;;;;;;;;;;-144.99;84.28;52236.13;5067393;28;19929;-74
2022/07/23 06:43:16;;;;;;;;;;;;;;;-144.99;83.85;52272.81;5064593;28;19978;-74
2022/07/23 06:45:42;;;;;;;;;;;;;;;-144.99;82.92;52244.28;5069686;28;19999;-74
2022/07/23 06:48:10;;;;;;;;;;;;;;;-144.99;82.60;52227.97;5072175;28;19928;-74
2022/07/23 06:50:37;;;;;;;;;;;;;;;-144.99;82.10;52240.19;5072025;28;19925;-73
2022/07/23 06:53:03;;;;;;;;;;;;;;;-144.99;85.70;52227.97;5074542;28;19924;-72
2022/07/23 06:55:31;;;;;;;;;;;;;;;-144.99;87.16;52248.34;5075353;28;19943;-73
2022/07/23 06:57:57;;;;;;;;;;;;;;;-144.99;100.00;61100.13;5072013;28;19959;-72
2022/07/23 07:00:26;;;;;;;;;;;;;;;-144.99;100.00;61100.13;5074287;28;19924;-73
2022/07/23 07:02:54;;;;;;;;;;;;;;;-144.99;100.00;61100.13;5072615;28;19955;-71
2022/07/23 07:05:22;;;;;;;;;;;;;;;-144.99;85.53;52268.72;5069235;28;19937;-74
2022/07/23 07:07:49;;;;;;;;;;;;;;;-144.99;100.00;61100.13;5073616;28;19924;-74
2022/07/23 07:10:17;;;;;;;;;;;;;;;-144.99;85.35;52244.28;5070243;28;20022;-74
2022/07/23 07:12:43;;;;;;;;;;;;;;;-144.99;100.00;61100.13;5072733;28;19932;-73
2022/07/23 07:15:10;;;;;;;;;;;;;;;-144.99;84.26;52225.94;5068414;28;19928;-74
2022/07/23 07:17:36;;;;;;;;;;;;;;;-144.99;100.00;61100.13;5073840;28;20015;-74
2022/07/23 07:20:03;;;;;;;;;;;;;;;-144.99;100.00;61100.13;5066901;28;20395;-70
2022/07/23 07:22:31;;;;;;;;;;;;;;;-144.99;79.00;52254.47;5068173;28;20443;-69
2022/07/23 07:24:57;;;;;;;;;;;;;;;-144.99;78.85;52223.88;5075097;28;19929;-70
2022/07/23 07:27:24;;;;;;;;;;;;;;;-144.99;78.31;52254.47;5078280;28;20052;-71
2022/07/23 07:29:50;;;;;;;;;;;;;;;-144.99;100.00;61100.13;5073675;28;19986;-71
2022/07/23 07:32:17;;;;;;;;;;;;;;;-144.99;100.00;61100.13;5072135;28;20322;-70
2022/07/23 07:34:43;;;;;;;;;;;;;;;-144.99;80.15;52223.88;5068375;28;19928;-69
2022/07/23 07:37:10;;;;;;;;;;;;;;;-144.99;100.00;61100.13;5074011;28;19939;-70
2022/07/23 07:39:38;;;;;;;;;;;;;;;-144.99;79.71;52260.56;5074453;28;19924;-70
2022/07/23 07:42:04;;;;;;;;;;;;;;;-144.99;80.05;52232.03;5073736;28;19947;-71
2022/07/23 07:44:31;;;;;;;;;;;;;;;-144.99;83.80;52252.44;5072255;28;19925;-71
2022/07/23 07:46:57;;;;;;;;;;;;;;;-144.99;85.07;52272.81;5070402;28;19925;-71
2022/07/23 07:49:24;;;;;;;;;;;;;;;-144.99;83.46;52244.28;5072728;28;19946;-70
2022/07/23 07:51:50;;;;;;;;;;;;;;;-144.99;83.69;52248.34;5064861;28;20395;-70
2022/07/23 07:54:17;;;;;;;;;;;;;;;-144.99;82.11;52207.59;5065255;28;19951;-71
2022/07/23 07:56:45;;;;;;;;;;;;;;;-144.99;80.36;52236.13;5074487;28;19937;-70
2022/07/23 07:59:12;;;;;;;;;;;;;;;-144.99;78.72;52207.59;5070530;28;19996;-70
2022/07/23 08:01:38;;;;;;;;;;;;;;;-144.99;77.65;52221.84;5070014;28;20340;-70
2022/07/23 08:04:04;;;;;;;;;;;;;;;-144.99;77.16;52232.03;5072590;28;20444;-70
2022/07/23 08:06:31;;;;;;;;;;;;;;;-144.99;75.85;52232.03;5069291;28;20024;-70
2022/07/23 08:08:57;;;;;;;;;;;;;;;-144.99;73.80;52203.50;5071156;28;19928;-70
2022/07/23 08:11:24;;;;;;;;;;;;;;;-144.99;73.43;52207.59;5069269;28;19971;-71
2022/07/23 08:13:52;;;;;;;;;;;;;;;-144.99;71.47;52195.34;5069382;28;20342;-76
2022/07/23 08:16:18;;;;;;;;;;;;;;;-144.99;68.32;52203.50;5070838;28;19928;-74
2022/07/23 08:18:45;;;;;;;;;;;;;;;-144.99;67.97;52174.97;5070788;28;19924;-75
2022/07/23 08:21:11;;;;;;;;;;;;;;;-144.99;66.23;52207.59;5069742;28;20362;-75
2022/07/23 08:23:38;;;;;;;;;;;;;;;-144.99;64.07;52172.94;5070923;28;19947;-75
2022/07/23 08:26:04;;;;;;;;;;;;;;;-144.99;63.29;52234.09;5070197;28;19932;-74
2022/07/23 08:28:32;;;;;;;;;;;;;;;-144.99;64.10;52191.28;5074642;28;20273;-74
2022/07/23 08:31:00;;;;;;;;;;;;;;;-144.99;63.74;52223.88;5074030;28;20350;-75
2022/07/23 08:33:27;;;;;;;;;;;;;;;-144.99;64.33;52158.66;5073509;28;19928;-75
2022/07/23 08:35:53;;;;;;;;;;;;;;;-144.99;64.35;52221.84;5070428;28;20065;-73
2022/07/23 08:38:21;;;;;;;;;;;;;;;-144.99;63.85;52207.59;5071403;28;19990;-78
2022/07/23 08:40:48;;;;;;;;;;;;;;;-144.99;63.88;52172.94;5077678;28;19924;-77
2022/07/23 08:43:15;;;;;;;;;;;;;;;-144.99;63.66;52174.97;5073880;28;19966;-78
2022/07/23 08:45:42;;;;;;;;;;;;;;;-144.99;63.10;52223.88;5071777;28;19955;-75
2022/07/23 08:48:12;;;;;;;;;;;;;;;-144.99;62.72;52179.06;5090927;22;19924;-77
2022/07/23 08:50:41;;;;;;;;;;;;;;;-144.99;61.23;52183.13;5054441;28;19924;-74
2022/07/23 08:53:08;;;;;;;;;;;;;;;-144.99;61.12;52179.06;5066748;28;20014;-76
2022/07/23 08:55:34;;;;;;;;;;;;;;;-144.99;60.74;52142.38;5067625;28;19928;-80
2022/07/23 08:58:01;;;;;;;;;;;;;;;-144.99;59.56;52152.56;5056338;28;20348;-77
2022/07/23 09:00:28;;;;;;;;;;;;;;;-144.99;57.72;52170.91;5039940;28;19929;-76
2022/07/23 09:02:54;;;;;;;;;;;;;;;-144.99;57.59;52134.22;5048155;28;20093;-77
2022/07/23 09:05:22;;;;;;;;;;;;;;;-144.99;56.43;52162.75;5046172;28;19933;-76
2022/07/23 09:08:05;;;;;;;;;;;;;;;-144.99;57.17;52162.75;5046880;28;19944;-79
2022/07/23 09:10:43;;;;;;;;;;;;;;;-144.99;58.30;52195.34;5058085;28;19992;-80
2022/07/23 09:13:23;;;;;;;;;;;;;;;-144.99;60.40;52195.34;5062348;28;19924;-77
2022/07/23 09:15:49;;;;;;;;;;;;;;;-144.99;61.52;52183.13;5052008;28;19970;-79
2022/07/23 09:18:16;;;;;;;;;;;;;;;-144.99;62.76;52227.97;5046867;28;19994;-78
2022/07/23 09:20:45;;;;;;;;;;;;;;;-144.99;66.48;52203.50;5046145;28;19925;-76
2022/07/23 09:23:12;;;;;;;;;;;;;;;-144.99;65.14;52207.59;5047356;28;20380;-78
2022/07/23 09:25:38;;;;;;;;;;;;;;;-144.99;65.23;52195.34;5047413;28;20008;-77
2022/07/23 09:28:07;;;;;;;;;;;;;;;-144.99;65.09;52203.50;5047403;28;19924;-77
2022/07/23 09:30:35;;;;;;;;;;;;;;;-144.99;65.23;52203.50;5048960;28;19929;-78
2022/07/23 09:33:05;;;;;;;;;;;;;;;-144.99;65.46;52215.75;5046377;28;19935;-77
2022/07/23 09:35:45;;;;;;;;;;;;;;;-144.99;65.05;52215.75;5045575;28;19989;-77
2022/07/23 09:38:12;;;;;;;;;;;;;;;-144.99;64.19;52238.16;5046246;28;19929;-78
2022/07/23 09:40:38;;;;;;;;;;;;;;;-144.99;64.39;52215.75;5047360;28;19932;-77
2022/07/23 09:43:05;;;;;;;;;;;;;;;-144.99;62.29;52205.53;5046263;28;19929;-76
2022/07/23 09:45:31;;;;;;;;;;;;;;;-144.99;62.58;52223.88;5046560;28;20032;-77
2022/07/23 09:48:10;;;;;;;;;;;;;;;-144.99;61.70;52162.75;5046578;28;19936;-76
2022/07/23 09:50:37;;;;;;;;;;;;;;;-144.99;61.54;52170.91;5046866;28;19925;-74
2022/07/23 09:53:05;;;;;;;;;;;;;;;-144.99;60.10;52138.28;5045466;28;20225;-76
2022/07/23 09:55:35;;;;;;;;;;;;;;;-144.99;58.15;52101.59;5045782;28;19933;-74
2022/07/23 09:58:01;;;;;;;;;;;;;;;-144.99;56.50;52158.66;5052617;28;19928;-74
2022/07/23 10:00:28;;;;;;;;;;;;;;;-144.99;55.21;52170.91;5046341;28;20027;-78
2022/07/23 10:02:55;;;;;;;;;;;;;;;-144.99;57.13;52195.34;5044792;28;19963;-76
2022/07/23 10:05:22;;;;;;;;;;;;;;;-144.99;56.94;52219.81;5044219;28;19983;-79
2022/07/23 10:07:49;;;;;;;;;;;;;;;-144.99;58.26;52236.13;5046150;28;20387;-75
2022/07/23 10:10:18;;;;;;;;;;;;;;;-144.99;58.70;52187.19;5046422;28;20003;-76
2022/07/23 10:15:37;;;;;;;;;;;;;;;-144.99;58.56;52136.25;5020123;28;20352;-76
2022/07/23 10:18:03;;;;;;;;;;;;;;;-144.99;57.21;52130.13;5047753;28;20241;-79
2022/07/23 10:20:30;;;;;;;;;;;;;;;-144.99;55.92;52154.59;5047908;28;19925;-77
2022/07/23 10:23:01;;;;;;;;;;;;;;;-144.99;54.60;52121.97;5049222;28;20435;-76
2022/07/23 10:25:33;;;;;;;;;;;;;;;-144.99;53.13;52158.66;5049778;28;20376;-77
2022/07/23 10:28:09;;;;;;;;;;;;;;;-144.99;52.41;52183.13;5050237;28;20051;-76
2022/07/23 10:30:42;;;;;;;;;;;;;;;-144.99;51.74;52134.22;5051037;28;20015;-77
2022/07/23 10:33:16;;;;;;;;;;;;;;;-144.99;51.39;52166.81;5048937;28;19933;-77
2022/07/23 10:35:45;;;;;;;;;;;;;;;-144.99;51.26;52138.28;5047754;28;19981;-78
2022/07/23 10:38:12;;;;;;;;;;;;;;;-144.99;51.23;52146.44;5049462;28;19933;-77
2022/07/23 10:40:53;;;;;;;;;;;;;;;-144.99;51.99;52174.97;5049458;28;20481;-78
2022/07/23 10:43:20;;;;;;;;;;;;;;;-144.99;51.70;52174.97;5048969;28;19929;-79
2022/07/23 10:45:46;;;;;;;;;;;;;;;-144.99;51.39;52138.28;5049248;28;19929;-77
2022/07/23 10:48:15;;;;;;;;;;;;;;;-144.99;50.85;52121.97;5049124;28;19990;-80
2022/07/23 10:50:42;;;;;;;;;;;;;;;-144.99;50.41;52130.13;5047713;28;19932;-80
2022/07/23 10:53:11;;;;;;;;;;;;;;;-144.99;50.40;52121.97;5048310;28;20047;-77
2022/07/23 10:55:43;;;;;;;;;;;;;;;-144.99;50.09;52132.19;5049363;28;20032;-77
2022/07/23 10:58:10;;;;;;;;;;;;;;;-144.99;49.74;52097.53;5047867;28;20035;-78
2022/07/23 11:00:36;;;;;;;;;;;;;;;-144.99;49.31;52130.13;5048038;28;20371;-78
2022/07/23 11:03:06;;;;;;;;;;;;;;;-144.99;48.40;52109.75;5048333;28;19933;-78
2022/07/23 11:05:41;;;;;;;;;;;;;;;-144.99;48.21;52119.94;5046897;28;19933;-77
2022/07/23 11:08:14;;;;;;;;;;;;;;;-144.99;48.13;52093.44;5049028;28;20390;-77
2022/07/23 11:10:43;;;;;;;;;;;;;;;-144.99;48.10;52126.06;5048485;28;20015;-75
2022/07/23 11:13:28;;;;;;;;;;;;;;;-144.99;47.74;52101.59;5045691;28;19932;-76
2022/07/23 11:16:05;;;;;;;;;;;;;;;-144.99;47.39;52064.91;5034532;28;20364;-75
2022/07/23 11:18:50;;;;;;;;;;;;;;;-144.99;46.96;52134.22;5048788;28;19968;-80
2022/07/23 11:21:35;;;;;;;;;;;;;;;-144.99;46.76;52142.38;5047823;28;19929;-77
2022/07/23 11:24:06;;;;;;;;;;;;;;;-144.99;47.21;52132.19;5048420;28;20377;-78
2022/07/23 11:26:46;;;;;;;;;;;;;;;-144.99;47.13;52130.13;5048367;28;19945;-77
2022/07/23 11:29:32;;;;;;;;;;;;;;;-144.99;47.52;52138.28;5048370;28;19999;-79
2022/07/23 11:32:00;;;;;;;;;;;;;;;-144.99;48.21;52134.22;5058591;28;19925;-78
2022/07/23 11:34:29;;;;;;;;;;;;;;;-144.99;48.02;52130.13;5048250;28;19924;-78
2022/07/23 11:36:56;;;;;;;;;;;;;;;-144.99;47.69;52109.75;5047009;28;20434;-77
2022/07/23 11:39:25;;;;;;;;;;;;;;;-144.99;46.73;52097.53;5047900;28;19929;-77
2022/07/23 11:41:53;;;;;;;;;;;;;;;-144.99;46.48;52119.94;5047421;28;19971;-77
2022/07/23 11:44:26;;;;;;;;;;;;;;;-144.99;46.57;52146.44;5048657;28;19956;-76
2022/07/23 11:46:56;;;;;;;;;;;;;;;-144.99;47.08;52105.69;5047421;28;20007;-76
2022/07/23 11:49:23;;;;;;;;;;;;;;;-144.99;46.81;52079.19;5049668;28;20008;-78
2022/07/23 11:52:03;;;;;;;;;;;;;;;-144.99;46.55;52075.09;5046073;28;19929;-77
2022/07/23 11:54:30;;;;;;;;;;;;;;;-144.99;45.46;52093.44;5048340;28;19925;-77
2022/07/23 11:56:58;;;;;;;;;;;;;;;-144.99;44.86;52101.59;5052401;28;19989;-78
2022/07/23 11:59:25;;;;;;;;;;;;;;;-144.99;44.08;52109.75;5049308;28;19960;-77
2022/07/23 12:01:58;;;;;;;;;;;;;;;-144.99;43.53;52081.22;5063777;28;19939;-81
2022/07/23 12:04:25;;;;;;;;;;;;;;;-144.99;43.82;52085.31;5054819;28;19948;-78
2022/07/23 12:06:52;;;;;;;;;;;;;;;-144.99;43.12;52097.53;5046246;28;20039;-76
2022/07/23 12:09:18;;;;;;;;;;;;;;;-144.99;43.84;52134.22;5047794;28;20271;-79
2022/07/23 12:11:58;;;;;;;;;;;;;;;-144.99;43.70;52099.56;5047465;28;19936;-77
2022/07/23 12:14:25;;;;;;;;;;;;;;;-144.99;43.54;52109.75;5047769;28;20372;-78
2022/07/23 12:17:06;;;;;;;;;;;;;;;-144.99;44.08;52115.88;5047452;28;19986;-77
2022/07/23 12:19:33;;;;;;;;;;;;;;;-144.99;43.71;52044.53;5047486;28;19929;-78
2022/07/23 12:22:00;;;;;;;;;;;;;;;-144.99;42.90;52032.31;5045980;28;20151;-79
2022/07/23 12:24:26;;;;;;;;;;;;;;;-144.99;41.71;52126.06;5047364;28;19928;-77
2022/07/23 12:27:10;;;;;;;;;;;;;;;-144.99;41.83;52154.59;5047418;28;19928;-77
2022/07/23 12:29:37;;;;;;;;;;;;;;;-144.99;42.47;52117.91;5043738;28;19925;-77
2022/07/23 12:32:15;;;;;;;;;;;;;;;-144.99;42.93;52060.84;5054317;28;20436;-75